sensor_id;sensor_type;location;lat;lon;timestamp;temperature;humidity
42135;DHT22;28312;43.460;11.810;2022-12-17T00:02:26;11.30;93.60
42135;DHT22;28312;43.460;11.810;2022-12-17T00:06:48;11.30;93.70
42135;DHT22;28312;43.460;11.810;2022-12-17T00:11:10;11.30;93.90
42135;DHT22;28312;43.460;11.810;2022-12-17T00:15:32;11.40;94.00
42135;DHT22;28312;43.460;11.810;2022-12-17T00:19:54;11.40;94.10
42135;DHT22;28312;43.460;11.810;2022-12-17T00:24:16;11.50;94.10
42135;DHT22;28312;43.460;11.810;2022-12-17T00:28:38;11.50;94.00
42135;DHT22;28312;43.460;11.810;2022-12-17T00:32:59;11.60;94.10
42135;DHT22;28312;43.460;11.810;2022-12-17T00:37:22;11.60;94.20
42135;DHT22;28312;43.460;11.810;2022-12-17T00:41:44;11.70;94.30
42135;DHT22;28312;43.460;11.810;2022-12-17T00:46:05;11.80;94.30
42135;DHT22;28312;43.460;11.810;2022-12-17T00:50:29;11.80;94.30
42135;DHT22;28312;43.460;11.810;2022-12-17T00:54:51;11.90;94.30
42135;DHT22;28312;43.460;11.810;2022-12-17T00:59:13;11.90;94.30
42135;DHT22;28312;43.460;11.810;2022-12-17T01:03:34;12.00;94.20
42135;DHT22;28312;43.460;11.810;2022-12-17T01:08:06;12.00;94.20
42135;DHT22;28312;43.460;11.810;2022-12-17T01:12:31;11.90;93.90
42135;DHT22;28312;43.460;11.810;2022-12-17T01:16:55;11.90;93.80
42135;DHT22;28312;43.460;11.810;2022-12-17T01:21:17;11.80;93.80
42135;DHT22;28312;43.460;11.810;2022-12-17T01:25:40;11.80;93.70
42135;DHT22;28312;43.460;11.810;2022-12-17T01:30:03;11.70;93.50
42135;DHT22;28312;43.460;11.810;2022-12-17T01:34:25;11.60;93.40
42135;DHT22;28312;43.460;11.810;2022-12-17T01:38:47;11.60;93.40
42135;DHT22;28312;43.460;11.810;2022-12-17T01:43:10;11.50;93.40
42135;DHT22;28312;43.460;11.810;2022-12-17T01:47:37;11.50;93.60
42135;DHT22;28312;43.460;11.810;2022-12-17T01:52:00;11.50;93.70
42135;DHT22;28312;43.460;11.810;2022-12-17T01:56:22;11.60;93.80
42135;DHT22;28312;43.460;11.810;2022-12-17T02:00:44;11.60;93.90
42135;DHT22;28312;43.460;11.810;2022-12-17T02:05:07;11.70;93.90
42135;DHT22;28312;43.460;11.810;2022-12-17T02:09:36;11.70;93.90
42135;DHT22;28312;43.460;11.810;2022-12-17T02:14:08;11.60;93.80
42135;DHT22;28312;43.460;11.810;2022-12-17T02:18:52;11.60;93.60
42135;DHT22;28312;43.460;11.810;2022-12-17T02:27:53;11.50;93.50
42135;DHT22;28312;43.460;11.810;2022-12-17T02:32:17;11.50;93.50
42135;DHT22;28312;43.460;11.810;2022-12-17T02:36:40;11.40;93.40
42135;DHT22;28312;43.460;11.810;2022-12-17T02:41:04;11.40;93.30
42135;DHT22;28312;43.460;11.810;2022-12-17T02:45:28;11.40;93.30
42135;DHT22;28312;43.460;11.810;2022-12-17T02:49:51;11.40;93.20
42135;DHT22;28312;43.460;11.810;2022-12-17T02:54:15;11.30;93.20
42135;DHT22;28312;43.460;11.810;2022-12-17T02:58:39;11.30;93.30
42135;DHT22;28312;43.460;11.810;2022-12-17T03:03:14;11.30;93.20
42135;DHT22;28312;43.460;11.810;2022-12-17T03:07:36;11.20;93.00
42135;DHT22;28312;43.460;11.810;2022-12-17T03:11:58;11.20;92.90
42135;DHT22;28312;43.460;11.810;2022-12-17T03:16:20;11.10;92.90
42135;DHT22;28312;43.460;11.810;2022-12-17T03:20:42;11.00;92.90
42135;DHT22;28312;43.460;11.810;2022-12-17T03:25:14;11.00;93.00
42135;DHT22;28312;43.460;11.810;2022-12-17T03:29:36;11.00;93.00
42135;DHT22;28312;43.460;11.810;2022-12-17T03:33:58;11.00;93.00
42135;DHT22;28312;43.460;11.810;2022-12-17T03:38:20;10.90;92.90
42135;DHT22;28312;43.460;11.810;2022-12-17T03:42:42;10.80;92.70
42135;DHT22;28312;43.460;11.810;2022-12-17T03:47:04;10.70;92.40
42135;DHT22;28312;43.460;11.810;2022-12-17T03:51:25;10.70;92.00
42135;DHT22;28312;43.460;11.810;2022-12-17T03:55:48;10.60;91.80
42135;DHT22;28312;43.460;11.810;2022-12-17T04:00:11;10.30;91.20
42135;DHT22;28312;43.460;11.810;2022-12-17T04:04:33;10.10;91.20
42135;DHT22;28312;43.460;11.810;2022-12-17T04:08:55;10.00;91.50
42135;DHT22;28312;43.460;11.810;2022-12-17T04:13:16;9.90;91.80
42135;DHT22;28312;43.460;11.810;2022-12-17T04:17:42;9.90;92.10
42135;DHT22;28312;43.460;11.810;2022-12-17T04:22:05;9.90;92.10
42135;DHT22;28312;43.460;11.810;2022-12-17T04:26:27;9.80;92.20
42135;DHT22;28312;43.460;11.810;2022-12-17T04:30:48;9.80;92.30
42135;DHT22;28312;43.460;11.810;2022-12-17T04:35:11;9.80;92.30
42135;DHT22;28312;43.460;11.810;2022-12-17T04:39:34;9.80;92.20
42135;DHT22;28312;43.460;11.810;2022-12-17T04:43:56;9.70;92.20
42135;DHT22;28312;43.460;11.810;2022-12-17T04:48:18;9.70;92.20
42135;DHT22;28312;43.460;11.810;2022-12-17T04:52:41;9.60;92.20
42135;DHT22;28312;43.460;11.810;2022-12-17T04:57:03;9.50;92.20
42135;DHT22;28312;43.460;11.810;2022-12-17T05:01:26;9.50;92.30
42135;DHT22;28312;43.460;11.810;2022-12-17T05:05:48;9.50;92.50
42135;DHT22;28312;43.460;11.810;2022-12-17T05:10:10;9.50;92.50
42135;DHT22;28312;43.460;11.810;2022-12-17T05:14:32;9.40;92.40
42135;DHT22;28312;43.460;11.810;2022-12-17T05:18:54;9.40;92.20
42135;DHT22;28312;43.460;11.810;2022-12-17T05:23:17;9.30;92.30
42135;DHT22;28312;43.460;11.810;2022-12-17T05:27:39;9.30;92.40
42135;DHT22;28312;43.460;11.810;2022-12-17T05:32:00;9.30;92.70
42135;DHT22;28312;43.460;11.810;2022-12-17T05:36:22;9.50;93.00
42135;DHT22;28312;43.460;11.810;2022-12-17T05:40:44;9.50;93.30
42135;DHT22;28312;43.460;11.810;2022-12-17T05:45:06;9.70;93.50
42135;DHT22;28312;43.460;11.810;2022-12-17T05:49:28;9.80;93.70
42135;DHT22;28312;43.460;11.810;2022-12-17T05:53:50;9.90;94.00
42135;DHT22;28312;43.460;11.810;2022-12-17T05:58:12;10.10;94.00
42135;DHT22;28312;43.460;11.810;2022-12-17T06:02:34;10.20;94.20
42135;DHT22;28312;43.460;11.810;2022-12-17T06:06:56;10.40;94.20
42135;DHT22;28312;43.460;11.810;2022-12-17T06:11:19;10.40;94.00
42135;DHT22;28312;43.460;11.810;2022-12-17T06:15:41;10.50;94.00
42135;DHT22;28312;43.460;11.810;2022-12-17T06:20:03;10.50;93.80
42135;DHT22;28312;43.460;11.810;2022-12-17T06:24:25;10.50;93.60
42135;DHT22;28312;43.460;11.810;2022-12-17T06:28:48;10.50;93.60
42135;DHT22;28312;43.460;11.810;2022-12-17T06:33:10;10.50;93.60
42135;DHT22;28312;43.460;11.810;2022-12-17T06:37:32;10.60;93.60
42135;DHT22;28312;43.460;11.810;2022-12-17T06:41:54;10.60;93.60
42135;DHT22;28312;43.460;11.810;2022-12-17T06:46:16;10.60;93.60
42135;DHT22;28312;43.460;11.810;2022-12-17T06:50:38;10.70;93.60
42135;DHT22;28312;43.460;11.810;2022-12-17T06:55:00;10.60;93.60
42135;DHT22;28312;43.460;11.810;2022-12-17T06:59:22;10.70;93.70
42135;DHT22;28312;43.460;11.810;2022-12-17T07:03:44;10.70;93.80
42135;DHT22;28312;43.460;11.810;2022-12-17T07:08:06;10.70;93.80
42135;DHT22;28312;43.460;11.810;2022-12-17T07:12:28;10.80;93.80
42135;DHT22;28312;43.460;11.810;2022-12-17T07:16:50;10.80;93.50
42135;DHT22;28312;43.460;11.810;2022-12-17T07:21:11;10.80;93.50
42135;DHT22;28312;43.460;11.810;2022-12-17T07:25:33;10.80;93.60
42135;DHT22;28312;43.460;11.810;2022-12-17T07:29:55;10.90;94.00
42135;DHT22;28312;43.460;11.810;2022-12-17T07:34:17;11.00;93.90
42135;DHT22;28312;43.460;11.810;2022-12-17T07:38:39;11.00;93.70
42135;DHT22;28312;43.460;11.810;2022-12-17T07:43:09;11.00;93.70
42135;DHT22;28312;43.460;11.810;2022-12-17T07:47:31;11.00;93.90
42135;DHT22;28312;43.460;11.810;2022-12-17T07:51:53;11.00;93.90
42135;DHT22;28312;43.460;11.810;2022-12-17T07:56:16;11.10;94.60
42135;DHT22;28312;43.460;11.810;2022-12-17T08:00:38;11.20;95.00
42135;DHT22;28312;43.460;11.810;2022-12-17T08:05:00;11.20;94.50
42135;DHT22;28312;43.460;11.810;2022-12-17T08:09:21;11.20;94.20
42135;DHT22;28312;43.460;11.810;2022-12-17T08:13:43;11.20;94.30
42135;DHT22;28312;43.460;11.810;2022-12-17T08:18:06;11.40;95.50
42135;DHT22;28312;43.460;11.810;2022-12-17T08:22:28;11.80;96.30
42135;DHT22;28312;43.460;11.810;2022-12-17T08:26:50;12.10;96.00
42135;DHT22;28312;43.460;11.810;2022-12-17T08:31:25;13.30;97.40
42135;DHT22;28312;43.460;11.810;2022-12-17T08:35:54;14.90;97.80
42135;DHT22;28312;43.460;11.810;2022-12-17T08:40:16;16.30;97.20
42135;DHT22;28312;43.460;11.810;2022-12-17T08:44:38;16.90;93.20
42135;DHT22;28312;43.460;11.810;2022-12-17T08:49:00;17.40;92.30
42135;DHT22;28312;43.460;11.810;2022-12-17T08:53:23;17.60;91.00
42135;DHT22;28312;43.460;11.810;2022-12-17T08:57:54;17.80;91.20
42135;DHT22;28312;43.460;11.810;2022-12-17T09:02:17;18.20;91.30
42135;DHT22;28312;43.460;11.810;2022-12-17T09:06:38;18.70;90.80
42135;DHT22;28312;43.460;11.810;2022-12-17T09:11:00;18.70;89.10
42135;DHT22;28312;43.460;11.810;2022-12-17T09:15:23;18.10;88.40
42135;DHT22;28312;43.460;11.810;2022-12-17T09:19:45;17.70;89.30
42135;DHT22;28312;43.460;11.810;2022-12-17T09:24:08;17.20;88.80
42135;DHT22;28312;43.460;11.810;2022-12-17T09:28:30;16.50;89.40
42135;DHT22;28312;43.460;11.810;2022-12-17T09:32:52;16.00;90.60
42135;DHT22;28312;43.460;11.810;2022-12-17T09:37:14;15.70;92.50
42135;DHT22;28312;43.460;11.810;2022-12-17T09:46:13;16.20;92.50
42135;DHT22;28312;43.460;11.810;2022-12-17T09:50:38;16.60;92.80
42135;DHT22;28312;43.460;11.810;2022-12-17T09:55:02;16.80;92.60
42135;DHT22;28312;43.460;11.810;2022-12-17T09:59:27;16.80;91.80
42135;DHT22;28312;43.460;11.810;2022-12-17T10:03:50;16.70;92.50
42135;DHT22;28312;43.460;11.810;2022-12-17T10:08:20;17.70;93.80
42135;DHT22;28312;43.460;11.810;2022-12-17T10:12:42;18.40;90.70
42135;DHT22;28312;43.460;11.810;2022-12-17T10:17:08;17.80;89.40
42135;DHT22;28312;43.460;11.810;2022-12-17T10:21:35;17.20;89.40
42135;DHT22;28312;43.460;11.810;2022-12-17T10:25:59;16.50;90.10
42135;DHT22;28312;43.460;11.810;2022-12-17T10:30:20;16.00;91.20
42135;DHT22;28312;43.460;11.810;2022-12-17T10:34:45;15.70;92.00
42135;DHT22;28312;43.460;11.810;2022-12-17T10:39:16;15.40;92.30
42135;DHT22;28312;43.460;11.810;2022-12-17T10:43:39;15.20;92.70
42135;DHT22;28312;43.460;11.810;2022-12-17T10:48:00;15.00;93.00
42135;DHT22;28312;43.460;11.810;2022-12-17T10:52:29;14.90;93.00
42135;DHT22;28312;43.460;11.810;2022-12-17T10:56:54;14.70;93.40
42135;DHT22;28312;43.460;11.810;2022-12-17T11:01:24;14.70;93.60
42135;DHT22;28312;43.460;11.810;2022-12-17T11:05:51;14.50;93.90
42135;DHT22;28312;43.460;11.810;2022-12-17T11:10:23;14.50;94.10
42135;DHT22;28312;43.460;11.810;2022-12-17T11:14:50;14.70;95.10
42135;DHT22;28312;43.460;11.810;2022-12-17T11:23:49;15.40;94.90
42135;DHT22;28312;43.460;11.810;2022-12-17T11:28:21;15.50;94.50
42135;DHT22;28312;43.460;11.810;2022-12-17T11:42:42;15.90;94.40
42135;DHT22;28312;43.460;11.810;2022-12-17T11:47:34;16.00;94.20
42135;DHT22;28312;43.460;11.810;2022-12-17T11:52:08;15.90;93.50
42135;DHT22;28312;43.460;11.810;2022-12-17T11:56:37;15.80;93.80
42135;DHT22;28312;43.460;11.810;2022-12-17T12:05:56;15.80;93.80
42135;DHT22;28312;43.460;11.810;2022-12-17T12:20:02;15.30;93.30
42135;DHT22;28312;43.460;11.810;2022-12-17T12:34:20;15.10;94.00
42135;DHT22;28312;43.460;11.810;2022-12-17T12:38:43;15.00;94.10
42135;DHT22;28312;43.460;11.810;2022-12-17T12:47:58;15.00;94.30
42135;DHT22;28312;43.460;11.810;2022-12-17T12:52:24;15.00;94.10
42135;DHT22;28312;43.460;11.810;2022-12-17T12:56:46;15.00;94.20
42135;DHT22;28312;43.460;11.810;2022-12-17T13:01:09;15.00;94.30
42135;DHT22;28312;43.460;11.810;2022-12-17T13:05:38;15.00;94.10
42135;DHT22;28312;43.460;11.810;2022-12-17T13:09:49;14.80;93.70
42135;DHT22;28312;43.460;11.810;2022-12-17T13:13:58;14.70;93.40
42135;DHT22;28312;43.460;11.810;2022-12-17T13:18:36;14.70;93.80
42135;DHT22;28312;43.460;11.810;2022-12-17T13:22:52;14.60;94.10
42135;DHT22;28312;43.460;11.810;2022-12-17T13:26:56;14.70;94.50
42135;DHT22;28312;43.460;11.810;2022-12-17T13:31:20;15.10;95.80
42135;DHT22;28312;43.460;11.810;2022-12-17T13:36:09;15.90;96.40
42135;DHT22;28312;43.460;11.810;2022-12-17T13:40:43;17.10;96.00
42135;DHT22;28312;43.460;11.810;2022-12-17T13:44:48;17.20;92.80
42135;DHT22;28312;43.460;11.810;2022-12-17T13:49:02;17.20;92.80
42135;DHT22;28312;43.460;11.810;2022-12-17T13:53:10;17.10;92.40
42135;DHT22;28312;43.460;11.810;2022-12-17T13:57:24;17.00;92.20
42135;DHT22;28312;43.460;11.810;2022-12-17T14:01:29;16.70;92.10
42135;DHT22;28312;43.460;11.810;2022-12-17T14:05:37;16.50;91.90
42135;DHT22;28312;43.460;11.810;2022-12-17T14:09:43;16.30;92.40
42135;DHT22;28312;43.460;11.810;2022-12-17T14:13:48;16.20;92.50
42135;DHT22;28312;43.460;11.810;2022-12-17T14:17:52;16.00;92.70
42135;DHT22;28312;43.460;11.810;2022-12-17T14:21:57;15.90;93.10
42135;DHT22;28312;43.460;11.810;2022-12-17T14:26:01;15.70;93.20
42135;DHT22;28312;43.460;11.810;2022-12-17T14:30:24;15.70;93.00
42135;DHT22;28312;43.460;11.810;2022-12-17T14:34:27;15.60;93.00
42135;DHT22;28312;43.460;11.810;2022-12-17T14:38:32;15.40;93.00
42135;DHT22;28312;43.460;11.810;2022-12-17T14:42:58;15.20;93.00
42135;DHT22;28312;43.460;11.810;2022-12-17T14:51:35;14.90;93.30
42135;DHT22;28312;43.460;11.810;2022-12-17T14:55:52;15.00;93.80
42135;DHT22;28312;43.460;11.810;2022-12-17T14:59:57;15.10;94.10
42135;DHT22;28312;43.460;11.810;2022-12-17T15:04:01;15.20;93.70
42135;DHT22;28312;43.460;11.810;2022-12-17T15:08:05;15.20;93.30
42135;DHT22;28312;43.460;11.810;2022-12-17T15:12:09;15.00;92.80
42135;DHT22;28312;43.460;11.810;2022-12-17T15:16:13;14.80;92.70
42135;DHT22;28312;43.460;11.810;2022-12-17T15:20:18;14.70;92.60
42135;DHT22;28312;43.460;11.810;2022-12-17T15:24:22;14.50;92.40
42135;DHT22;28312;43.460;11.810;2022-12-17T15:28:25;14.20;92.30
42135;DHT22;28312;43.460;11.810;2022-12-17T15:32:29;13.90;91.80
42135;DHT22;28312;43.460;11.810;2022-12-17T15:36:32;13.60;91.70
42135;DHT22;28312;43.460;11.810;2022-12-17T15:40:36;13.30;91.80
42135;DHT22;28312;43.460;11.810;2022-12-17T15:44:41;13.00;91.80
42135;DHT22;28312;43.460;11.810;2022-12-17T15:48:44;12.80;91.80
42135;DHT22;28312;43.460;11.810;2022-12-17T15:52:52;12.60;91.70
42135;DHT22;28312;43.460;11.810;2022-12-17T15:56:56;12.20;91.50
42135;DHT22;28312;43.460;11.810;2022-12-17T16:01:04;11.90;91.90
42135;DHT22;28312;43.460;11.810;2022-12-17T16:05:09;11.70;91.90
42135;DHT22;28312;43.460;11.810;2022-12-17T16:09:15;11.50;92.10
42135;DHT22;28312;43.460;11.810;2022-12-17T16:13:18;11.20;92.30
42135;DHT22;28312;43.460;11.810;2022-12-17T16:17:22;11.10;92.40
42135;DHT22;28312;43.460;11.810;2022-12-17T16:21:27;10.90;92.30
42135;DHT22;28312;43.460;11.810;2022-12-17T16:25:30;10.80;92.50
42135;DHT22;28312;43.460;11.810;2022-12-17T16:29:34;10.70;92.60
42135;DHT22;28312;43.460;11.810;2022-12-17T16:33:39;10.50;92.50
42135;DHT22;28312;43.460;11.810;2022-12-17T16:37:43;10.30;92.30
42135;DHT22;28312;43.460;11.810;2022-12-17T16:41:46;10.20;92.20
42135;DHT22;28312;43.460;11.810;2022-12-17T16:45:53;10.00;92.00
42135;DHT22;28312;43.460;11.810;2022-12-17T16:49:57;9.80;92.00
42135;DHT22;28312;43.460;11.810;2022-12-17T16:54:09;9.60;92.00
42135;DHT22;28312;43.460;11.810;2022-12-17T16:58:14;9.50;91.80
42135;DHT22;28312;43.460;11.810;2022-12-17T17:02:18;9.20;91.80
42135;DHT22;28312;43.460;11.810;2022-12-17T17:06:23;9.00;91.80
42135;DHT22;28312;43.460;11.810;2022-12-17T17:10:35;8.90;92.20
42135;DHT22;28312;43.460;11.810;2022-12-17T17:14:39;8.80;92.30
42135;DHT22;28312;43.460;11.810;2022-12-17T17:18:42;8.70;92.30
42135;DHT22;28312;43.460;11.810;2022-12-17T17:22:46;8.60;92.20
42135;DHT22;28312;43.460;11.810;2022-12-17T17:26:51;8.40;92.30
42135;DHT22;28312;43.460;11.810;2022-12-17T17:30:59;8.40;92.40
42135;DHT22;28312;43.460;11.810;2022-12-17T17:35:05;8.20;92.20
42135;DHT22;28312;43.460;11.810;2022-12-17T17:39:09;8.20;92.50
42135;DHT22;28312;43.460;11.810;2022-12-17T17:43:12;8.00;92.40
42135;DHT22;28312;43.460;11.810;2022-12-17T17:47:16;7.90;92.50
42135;DHT22;28312;43.460;11.810;2022-12-17T17:51:23;7.90;92.60
42135;DHT22;28312;43.460;11.810;2022-12-17T17:55:47;7.80;92.30
42135;DHT22;28312;43.460;11.810;2022-12-17T17:59:50;7.70;92.70
42135;DHT22;28312;43.460;11.810;2022-12-17T18:03:55;7.70;92.50
42135;DHT22;28312;43.460;11.810;2022-12-17T18:07:59;7.60;92.40
42135;DHT22;28312;43.460;11.810;2022-12-17T18:12:03;7.50;92.50
42135;DHT22;28312;43.460;11.810;2022-12-17T18:16:32;7.50;92.80
42135;DHT22;28312;43.460;11.810;2022-12-17T18:20:37;7.40;92.90
42135;DHT22;28312;43.460;11.810;2022-12-17T18:24:45;7.30;92.60
42135;DHT22;28312;43.460;11.810;2022-12-17T18:28:49;7.20;92.40
42135;DHT22;28312;43.460;11.810;2022-12-17T18:32:54;7.20;92.30
42135;DHT22;28312;43.460;11.810;2022-12-17T18:36:59;7.10;92.30
42135;DHT22;28312;43.460;11.810;2022-12-17T18:41:10;7.10;92.60
42135;DHT22;28312;43.460;11.810;2022-12-17T18:45:34;7.10;92.60
42135;DHT22;28312;43.460;11.810;2022-12-17T18:49:40;7.00;92.60
42135;DHT22;28312;43.460;11.810;2022-12-17T18:53:43;6.90;92.30
42135;DHT22;28312;43.460;11.810;2022-12-17T18:57:48;6.70;92.20
42135;DHT22;28312;43.460;11.810;2022-12-17T19:01:54;6.70;92.30
42135;DHT22;28312;43.460;11.810;2022-12-17T19:06:04;6.70;92.60
42135;DHT22;28312;43.460;11.810;2022-12-17T19:10:09;6.70;92.70
42135;DHT22;28312;43.460;11.810;2022-12-17T19:14:14;6.60;92.50
42135;DHT22;28312;43.460;11.810;2022-12-17T19:18:20;6.50;92.30
42135;DHT22;28312;43.460;11.810;2022-12-17T19:22:23;6.50;92.40
42135;DHT22;28312;43.460;11.810;2022-12-17T19:26:28;6.40;92.30
42135;DHT22;28312;43.460;11.810;2022-12-17T19:30:33;6.40;92.50
42135;DHT22;28312;43.460;11.810;2022-12-17T19:34:39;6.30;92.50
42135;DHT22;28312;43.460;11.810;2022-12-17T19:38:42;6.20;92.30
42135;DHT22;28312;43.460;11.810;2022-12-17T19:42:47;6.20;92.30
42135;DHT22;28312;43.460;11.810;2022-12-17T19:46:50;6.10;92.20
42135;DHT22;28312;43.460;11.810;2022-12-17T19:50:54;6.10;92.30
42135;DHT22;28312;43.460;11.810;2022-12-17T19:54:59;6.10;92.20
42135;DHT22;28312;43.460;11.810;2022-12-17T19:59:04;6.00;92.00
42135;DHT22;28312;43.460;11.810;2022-12-17T20:03:10;5.90;91.80
42135;DHT22;28312;43.460;11.810;2022-12-17T20:07:17;5.80;92.00
42135;DHT22;28312;43.460;11.810;2022-12-17T20:11:21;5.70;92.00
42135;DHT22;28312;43.460;11.810;2022-12-17T20:15:37;5.70;92.10
42135;DHT22;28312;43.460;11.810;2022-12-17T20:19:40;5.60;92.20
42135;DHT22;28312;43.460;11.810;2022-12-17T20:23:46;5.60;92.10
42135;DHT22;28312;43.460;11.810;2022-12-17T20:27:49;5.50;92.10
42135;DHT22;28312;43.460;11.810;2022-12-17T20:31:53;5.40;92.10
42135;DHT22;28312;43.460;11.810;2022-12-17T20:36:11;5.30;92.10
42135;DHT22;28312;43.460;11.810;2022-12-17T20:40:15;5.30;92.10
42135;DHT22;28312;43.460;11.810;2022-12-17T20:44:23;5.30;92.30
42135;DHT22;28312;43.460;11.810;2022-12-17T20:48:27;5.30;92.20
42135;DHT22;28312;43.460;11.810;2022-12-17T20:52:30;5.20;92.20
42135;DHT22;28312;43.460;11.810;2022-12-17T20:56:34;5.20;92.00
42135;DHT22;28312;43.460;11.810;2022-12-17T21:00:39;5.10;92.10
42135;DHT22;28312;43.460;11.810;2022-12-17T21:04:42;5.10;92.10
42135;DHT22;28312;43.460;11.810;2022-12-17T21:08:48;5.10;92.20
42135;DHT22;28312;43.460;11.810;2022-12-17T21:12:53;5.00;92.10
42135;DHT22;28312;43.460;11.810;2022-12-17T21:17:15;5.00;92.10
42135;DHT22;28312;43.460;11.810;2022-12-17T21:21:22;5.00;92.20
42135;DHT22;28312;43.460;11.810;2022-12-17T21:25:25;4.90;92.20
42135;DHT22;28312;43.460;11.810;2022-12-17T21:29:28;4.90;92.00
42135;DHT22;28312;43.460;11.810;2022-12-17T21:33:32;4.80;91.90
42135;DHT22;28312;43.460;11.810;2022-12-17T21:37:36;4.70;92.00
42135;DHT22;28312;43.460;11.810;2022-12-17T21:41:41;4.70;92.10
42135;DHT22;28312;43.460;11.810;2022-12-17T21:45:47;4.70;92.20
42135;DHT22;28312;43.460;11.810;2022-12-17T21:49:51;4.60;92.10
42135;DHT22;28312;43.460;11.810;2022-12-17T21:53:57;4.60;92.30
42135;DHT22;28312;43.460;11.810;2022-12-17T21:58:02;4.70;92.70
42135;DHT22;28312;43.460;11.810;2022-12-17T22:02:06;4.70;93.00
42135;DHT22;28312;43.460;11.810;2022-12-17T22:06:12;4.80;93.10
42135;DHT22;28312;43.460;11.810;2022-12-17T22:10:16;4.90;93.10
42135;DHT22;28312;43.460;11.810;2022-12-17T22:14:39;4.90;93.20
42135;DHT22;28312;43.460;11.810;2022-12-17T22:18:43;5.10;93.30
42135;DHT22;28312;43.460;11.810;2022-12-17T22:22:47;5.20;93.50
42135;DHT22;28312;43.460;11.810;2022-12-17T22:26:52;5.40;93.70
42135;DHT22;28312;43.460;11.810;2022-12-17T22:31:08;5.50;93.80
42135;DHT22;28312;43.460;11.810;2022-12-17T22:35:34;5.50;93.50
42135;DHT22;28312;43.460;11.810;2022-12-17T22:39:58;5.50;93.30
42135;DHT22;28312;43.460;11.810;2022-12-17T22:44:22;5.50;93.40
42135;DHT22;28312;43.460;11.810;2022-12-17T22:48:46;5.60;93.40
42135;DHT22;28312;43.460;11.810;2022-12-17T22:52:50;5.70;93.50
42135;DHT22;28312;43.460;11.810;2022-12-17T22:56:55;5.70;93.40
42135;DHT22;28312;43.460;11.810;2022-12-17T23:01:19;5.70;93.30
42135;DHT22;28312;43.460;11.810;2022-12-17T23:05:26;5.70;93.20
42135;DHT22;28312;43.460;11.810;2022-12-17T23:09:32;5.70;93.00
42135;DHT22;28312;43.460;11.810;2022-12-17T23:13:36;5.70;92.70
42135;DHT22;28312;43.460;11.810;2022-12-17T23:17:41;5.50;92.50
42135;DHT22;28312;43.460;11.810;2022-12-17T23:21:44;5.40;92.40
42135;DHT22;28312;43.460;11.810;2022-12-17T23:25:48;5.40;92.50
42135;DHT22;28312;43.460;11.810;2022-12-17T23:29:52;5.40;92.60
42135;DHT22;28312;43.460;11.810;2022-12-17T23:33:56;5.40;92.50
42135;DHT22;28312;43.460;11.810;2022-12-17T23:38:01;5.30;92.50
42135;DHT22;28312;43.460;11.810;2022-12-17T23:42:04;5.20;92.40
42135;DHT22;28312;43.460;11.810;2022-12-17T23:46:09;5.20;92.40
42135;DHT22;28312;43.460;11.810;2022-12-17T23:50:12;5.20;92.40
42135;DHT22;28312;43.460;11.810;2022-12-17T23:54:16;5.20;92.50
42135;DHT22;28312;43.460;11.810;2022-12-17T23:58:22;5.20;92.60
